MDST - Santiago (Cibao)
MDST 080400Z 12006KT 9999 FEW018CB SCT020 SCT300 26/23 Q1015 CB/S/SW/W
Observed:
Wind:
visibility:
Flight Rules:
Cloud Levels:
Temperature:
Humidity:
Pressure: